Aviation Digital Data Service (ADDS)

Output produced by METARs form (1413 UTC 10 July 2020)
found at http://www.aviationweather.gov/metar/data/
 
KMSP 101353Z 32006KT 10SM FEW250 23/17 A2997 RMK AO2 SLP142 T02330167
KMSP 101120Z 1012/1118 32004KT P6SM FEW250 
     FM101500 30010G16KT P6SM FEW050 SCT250 
     FM110600 30006KT P6SM SCT060 BKN090
       
KRNH 101355Z AUTO 31005KT 10SM CLR 23/16 A2996 RMK AO2 T02270158
KRNH 101335Z AUTO 31005KT 10SM CLR 22/16 A2996 RMK AO2 T02200163
KRNH 101315Z AUTO 31003KT 10SM CLR 21/16 A2996 RMK AO2 T02110161
KRNH 101120Z 1012/1112 29004KT P6SM SKC 
     FM101600 30012G20KT P6SM FEW050 SCT250 
     FM110100 30003KT P6SM SCT110